Airfield :
LOGIN :

Register | Disclaimer

   EN    FR    IT 

 










Legend :    VFR   Marginal VFR   IFR   Intensive IFR   Very Intensive IFR
Visi :
Ceiling :
>= 8 km
>= 3000ft
5 to 8 km
1000 to 3000 ft
1500m to 5 km
500 to 1000 ft
800 to 1500m
200 to 500 ft
< 800m
< 200 ft
Symbols :   Thunderstorms  Fog  Heavy snow  Heavy precipitations  Wind > 20 kt
SIGMETs :     Misc.  Thunderstorms  Icing  Turbulence  Mountain Waves  Volcanic Ashes






- Airport Elevation : 408 ft
- IATA code : SOB


LHSM - Sarmellek Balaton

CURRENT METAR :
  • 300715Z AUTO 35019G31KT CAVOK 04/M05 Q1021

EXPIRED METARs :
  • 300645Z AUTO 35020G32KT CAVOK 04/M05 Q1021
  • 300615Z AUTO 35020G33KT 320V020 CAVOK 03/M04 Q1020
  • 300545Z AUTO 36015KT 320V020 9999 -SHRA NSC 03/M03 Q1020
  • 300515Z AUTO 36018G29KT 330V030 CAVOK 04/M04 Q1020
  • 300445Z AUTO 35017G29KT 310V010 CAVOK 04/M02 Q1019

Expired Forecast.



MET'MAP, your aeronautical weather chart ! - Copyright ORBIFLY December 2007 - Disclaimer

ORBIFLY MET'MAP TEAM :

Programming & Development : Alexandra Zaïnal
Concept & original design : Baudouin d'Aumeries
Assistance for programming : Marc-Olivier Méhu
Technical & hardware support : Manuel Goepfert

Contact : metmap@orbifly.com




SOURCES & CREDITS :

   NOAA